Time;durP1;ratioP1;P1;durP2;ratioP2;P2;SDS_P1;SDS_P2;PMS_P1;PMS_P2;Temp;Humidity;BMP_temperature;BMP_pressure;BME280_temperature;BME280_humidity;BME280_pressure;Samples;Min_cycle;Max_cycle;Signal;HPM_P1;HPM_P2
2023/11/21 00:00:16;;;;;;;10.90;9.87;;;11.20;99.90;;;;;;5051180;28;20429;-73
2023/11/21 00:02:43;;;;;;;15.73;11.03;;;11.20;99.90;;;;;;5051294;28;20430;-73
2023/11/21 00:05:11;;;;;;;14.27;12.20;;;11.30;99.90;;;;;;5050995;28;20974;-73
2023/11/21 00:07:37;;;;;;;16.57;12.40;;;11.30;99.90;;;;;;5052536;28;20450;-73
2023/11/21 00:10:07;;;;;;;12.10;10.80;;;11.30;99.90;;;;;;5050573;28;20424;-73
2023/11/21 00:12:34;;;;;;;14.00;12.60;;;11.30;99.90;;;;;;5051549;28;20933;-73
2023/11/21 00:15:01;;;;;;;13.20;12.00;;;11.40;99.90;;;;;;5050654;28;20535;-73
2023/11/21 00:17:27;;;;;;;13.40;11.77;;;11.40;99.90;;;;;;5052084;28;20422;-73
2023/11/21 00:19:53;;;;;;;15.47;12.20;;;11.40;99.90;;;;;;5051405;28;20424;-73
2023/11/21 00:22:19;;;;;;;14.00;12.50;;;11.40;99.90;;;;;;5050521;28;20442;-73
2023/11/21 00:24:46;;;;;;;12.23;10.93;;;11.50;99.90;;;;;;5051866;28;20567;-73
2023/11/21 00:27:12;;;;;;;13.23;11.67;;;11.50;99.90;;;;;;5050405;28;20951;-73
2023/11/21 00:29:38;;;;;;;15.50;12.67;;;11.50;99.90;;;;;;5051035;28;21023;-73
2023/11/21 00:32:05;;;;;;;11.90;10.60;;;11.50;99.90;;;;;;5051674;28;20414;-73
2023/11/21 00:34:31;;;;;;;10.30;9.20;;;11.50;99.90;;;;;;5050613;28;20428;-73
2023/11/21 00:36:58;;;;;;;10.40;9.07;;;11.50;99.90;;;;;;5032840;28;20433;-71
2023/11/21 00:39:25;;;;;;;10.67;8.87;;;11.50;99.90;;;;;;5049690;28;20434;-72
2023/11/21 00:41:52;;;;;;;12.20;8.73;;;11.50;99.90;;;;;;5052199;28;20767;-74
2023/11/21 00:44:18;;;;;;;9.97;8.87;;;11.60;99.90;;;;;;5050375;28;20822;-73
2023/11/21 00:46:44;;;;;;;11.13;9.83;;;11.50;99.90;;;;;;5050910;28;20479;-73
2023/11/21 00:49:10;;;;;;;10.40;8.90;;;11.50;99.90;;;;;;5055261;28;20177;-72
2023/11/21 00:51:36;;;;;;;10.90;9.80;;;11.50;99.90;;;;;;5055235;28;20261;-72
2023/11/21 00:54:02;;;;;;;10.40;9.40;;;11.50;99.90;;;;;;5054403;28;20189;-70
2023/11/21 00:56:28;;;;;;;11.57;10.47;;;11.50;99.90;;;;;;5037818;28;20207;-72
2023/11/21 00:58:53;;;;;;;9.20;8.40;;;11.50;99.90;;;;;;5037199;28;20539;-72
2023/11/21 01:01:21;;;;;;;9.23;8.30;;;11.50;99.90;;;;;;5054148;28;20514;-73
2023/11/21 01:03:47;;;;;;;10.67;9.67;;;11.50;99.90;;;;;;5038137;28;20202;-73
2023/11/21 01:06:13;;;;;;;10.67;9.70;;;11.50;99.90;;;;;;5035831;28;20468;-73
2023/11/21 01:08:39;;;;;;;10.03;9.23;;;11.60;99.90;;;;;;5054709;28;20236;-73
2023/11/21 01:11:07;;;;;;;9.93;8.93;;;11.60;99.90;;;;;;5053963;28;20506;-73
2023/11/21 01:13:33;;;;;;;10.30;9.27;;;11.60;99.90;;;;;;5041176;28;20182;-73
2023/11/21 01:15:59;;;;;;;10.90;9.80;;;11.70;99.90;;;;;;5054870;28;21014;-73
2023/11/21 01:18:29;;;;;;;9.80;8.80;;;11.70;99.90;;;;;;5054732;28;20424;-73
2023/11/21 01:20:54;;;;;;;10.70;9.60;;;11.60;99.90;;;;;;5054986;28;20265;-73
2023/11/21 01:23:20;;;;;;;9.80;8.80;;;11.60;99.90;;;;;;5053565;28;20520;-73
2023/11/21 01:25:46;;;;;;;9.97;9.07;;;11.70;99.90;;;;;;5055111;28;20417;-73
2023/11/21 01:28:12;;;;;;;9.83;8.93;;;11.90;99.90;;;;;;5053445;28;20332;-73
2023/11/21 01:30:38;;;;;;;10.30;9.30;;;11.70;99.90;;;;;;5054070;28;20189;-73
2023/11/21 01:33:04;;;;;;;11.60;10.00;;;11.70;99.90;;;;;;5054419;28;20230;-69
2023/11/21 01:35:30;;;;;;;10.70;9.70;;;11.60;99.90;;;;;;5054508;28;20515;-74
2023/11/21 01:37:56;;;;;;;10.67;9.70;;;11.60;99.90;;;;;;5054004;28;20546;-73
2023/11/21 01:40:21;;;;;;;11.87;10.70;;;11.60;99.90;;;;;;5035780;28;20439;-73
2023/11/21 01:42:48;;;;;;;11.20;10.03;;;11.50;99.90;;;;;;5053773;28;20263;-73
2023/11/21 01:45:14;;;;;;;10.80;9.90;;;11.30;99.90;;;;;;5054778;28;20174;-73
2023/11/21 01:47:41;;;;;;;11.50;10.40;;;11.30;99.90;;;;;;5054042;28;20960;-74
2023/11/21 01:50:08;;;;;;;11.70;10.70;;;11.40;99.90;;;;;;5053191;28;20424;-73
2023/11/21 01:52:38;;;;;;;11.23;10.20;;;11.40;99.90;;;;;;5054737;28;20904;-74
2023/11/21 01:55:08;;;;;;;16.07;10.30;;;11.40;99.90;;;;;;5054239;28;20885;-69
2023/11/21 01:57:34;;;;;;;10.70;9.57;;;11.40;99.90;;;;;;5053604;28;20512;-73
2023/11/21 02:00:15;;;;;;;10.90;9.80;;;11.40;99.90;;;;;;5034930;28;20410;-73
2023/11/21 02:02:47;;;;;;;14.00;9.73;;;11.50;99.90;;;;;;5054543;28;20421;-72
2023/11/21 02:05:24;;;;;;;12.00;10.77;;;11.50;99.90;;;;;;5052797;28;20757;-73
2023/11/21 02:07:52;;;;;;;12.47;11.30;;;11.50;99.90;;;;;;5053898;28;21025;-73
2023/11/21 02:10:22;;;;;;;11.33;10.23;;;11.50;99.90;;;;;;5053545;28;20444;-73
2023/11/21 02:12:50;;;;;;;11.33;10.13;;;11.50;99.90;;;;;;5052596;28;20440;-73
2023/11/21 02:15:22;;;;;;;11.03;10.03;;;11.50;99.90;;;;;;5052486;28;20459;-73
2023/11/21 02:17:53;;;;;;;11.57;10.47;;;11.50;99.90;;;;;;5053590;28;20517;-73
2023/11/21 02:20:20;;;;;;;12.70;10.33;;;11.50;99.90;;;;;;5053887;28;20836;-73
2023/11/21 02:22:57;;;;;;;12.33;11.10;;;11.50;99.90;;;;;;5035342;28;20424;-72
2023/11/21 02:25:24;;;;;;;11.47;10.10;;;11.50;99.90;;;;;;5049216;28;20517;-73
2023/11/21 02:27:51;;;;;;;12.40;11.20;;;11.60;99.90;;;;;;5053409;28;20466;-73
2023/11/21 02:30:17;;;;;;;11.23;10.13;;;11.40;99.90;;;;;;5053588;28;20907;-73
2023/11/21 02:32:43;;;;;;;11.17;10.13;;;11.50;99.90;;;;;;5035672;28;20461;-73
2023/11/21 02:35:09;;;;;;;11.07;9.87;;;11.50;99.90;;;;;;5052246;28;20417;-73
2023/11/21 02:37:35;;;;;;;11.83;10.13;;;11.40;99.90;;;;;;5054164;28;20411;-73
2023/11/21 02:40:06;;;;;;;12.10;10.90;;;11.40;99.90;;;;;;5039830;28;20440;-73
2023/11/21 02:42:32;;;;;;;11.63;10.43;;;11.40;99.90;;;;;;5051855;28;20517;-73
2023/11/21 02:44:57;;;;;;;11.17;9.10;;;11.50;99.90;;;;;;5046552;28;20529;-73
2023/11/21 02:47:23;;;;;;;10.07;9.07;;;11.50;99.90;;;;;;5048328;28;20204;-73
2023/11/21 02:49:50;;;;;;;10.50;9.50;;;11.50;99.90;;;;;;5052901;28;20182;-73
2023/11/21 02:52:16;;;;;;;12.17;10.97;;;11.50;99.90;;;;;;5053153;28;20211;-73
2023/11/21 02:54:42;;;;;;;13.80;11.03;;;11.40;99.90;;;;;;5051456;28;20434;-73
2023/11/21 02:57:08;;;;;;;14.80;10.40;;;11.40;99.90;;;;;;5052020;28;20434;-69
2023/11/21 02:59:34;;;;;;;11.70;10.43;;;11.40;99.90;;;;;;5053887;28;20443;-73
2023/11/21 03:02:00;;;;;;;11.50;10.40;;;11.40;99.90;;;;;;5034639;28;20178;-74
2023/11/21 03:04:26;;;;;;;11.13;10.03;;;11.40;99.90;;;;;;5052199;28;20440;-73
2023/11/21 03:06:52;;;;;;;11.53;10.43;;;11.50;99.90;;;;;;5052627;28;20431;-73
2023/11/21 03:09:17;;;;;;;12.93;10.40;;;11.50;99.90;;;;;;5053345;28;20185;-73
2023/11/21 03:11:43;;;;;;;11.47;10.50;;;11.50;99.90;;;;;;5052637;28;20168;-74
2023/11/21 03:14:10;;;;;;;11.87;10.60;;;11.40;99.90;;;;;;5053030;28;20216;-68
2023/11/21 03:16:38;;;;;;;11.00;9.17;;;11.40;99.90;;;;;;5052122;28;20271;-74
2023/11/21 03:19:05;;;;;;;10.27;9.27;;;11.40;99.90;;;;;;5052435;28;20431;-74
2023/11/21 03:21:30;;;;;;;12.23;10.77;;;11.40;99.90;;;;;;5052496;28;20422;-74
2023/11/21 03:23:56;;;;;;;11.37;10.17;;;11.40;99.90;;;;;;5052984;28;20502;-74
2023/11/21 03:26:22;;;;;;;10.97;9.87;;;11.40;99.90;;;;;;5052801;28;20169;-74
2023/11/21 03:28:48;;;;;;;11.50;9.60;;;11.30;99.90;;;;;;5052052;28;20267;-73
2023/11/21 03:31:13;;;;;;;11.40;9.80;;;11.40;99.90;;;;;;5052899;28;20418;-73
2023/11/21 03:33:39;;;;;;;11.20;10.10;;;11.30;99.90;;;;;;5052117;28;20264;-73
2023/11/21 03:36:07;;;;;;;13.67;10.70;;;11.30;99.90;;;;;;5051593;28;20310;-73
2023/11/21 03:38:33;;;;;;;12.30;11.13;;;11.40;99.90;;;;;;5052056;28;20168;-73
2023/11/21 03:40:59;;;;;;;13.60;11.87;;;11.40;99.90;;;;;;5051896;28;20529;-73
2023/11/21 03:43:24;;;;;;;11.40;10.40;;;11.40;99.90;;;;;;5051118;28;20286;-73
2023/11/21 03:45:50;;;;;;;11.20;10.20;;;11.60;99.90;;;;;;5052864;28;20173;-73
2023/11/21 03:48:16;;;;;;;11.50;9.80;;;11.40;99.90;;;;;;5051321;28;20299;-73
2023/11/21 03:50:42;;;;;;;12.80;11.40;;;11.40;99.90;;;;;;5051865;28;20179;-73
2023/11/21 03:53:07;;;;;;;11.37;10.17;;;11.40;99.90;;;;;;5051985;28;20179;-70
2023/11/21 03:55:33;;;;;;;12.50;10.60;;;11.50;99.90;;;;;;5051629;28;20236;-73
2023/11/21 03:57:59;;;;;;;13.43;10.80;;;11.50;99.90;;;;;;5051790;28;20221;-73
2023/11/21 04:00:26;;;;;;;11.57;10.37;;;11.50;99.90;;;;;;5033812;28;20555;-73
2023/11/21 04:02:53;;;;;;;14.30;10.43;;;11.50;99.90;;;;;;5052071;28;20517;-73
2023/11/21 04:05:21;;;;;;;12.87;11.57;;;11.50;99.90;;;;;;5051107;28;20444;-73
2023/11/21 04:07:49;;;;;;;12.00;10.90;;;11.50;99.90;;;;;;5052194;28;20942;-73
2023/11/21 04:10:15;;;;;;;13.20;11.70;;;11.50;99.90;;;;;;5050693;28;20416;-72
2023/11/21 04:12:41;;;;;;;13.10;11.70;;;11.50;99.90;;;;;;5050808;28;20446;-73
2023/11/21 04:15:08;;;;;;;15.13;12.53;;;11.50;99.90;;;;;;5051138;28;20453;-73
2023/11/21 04:17:35;;;;;;;12.27;10.83;;;11.50;99.90;;;;;;5050886;28;20165;-72
2023/11/21 04:20:01;;;;;;;13.53;12.13;;;11.50;99.90;;;;;;5052382;28;20491;-73
2023/11/21 04:22:26;;;;;;;11.83;10.63;;;11.50;99.90;;;;;;5049997;28;20432;-73
2023/11/21 04:24:52;;;;;;;12.80;11.47;;;11.60;99.90;;;;;;5052261;28;20640;-73
2023/11/21 04:27:18;;;;;;;14.37;11.50;;;11.60;99.90;;;;;;5050367;28;20241;-73
2023/11/21 04:29:44;;;;;;;15.97;13.83;;;11.70;99.90;;;;;;5051544;28;20185;-73
2023/11/21 04:32:10;;;;;;;14.10;11.90;;;11.60;99.90;;;;;;5033587;28;20175;-72
2023/11/21 04:34:36;;;;;;;14.67;12.23;;;11.60;99.90;;;;;;5051307;28;20463;-73
2023/11/21 04:37:03;;;;;;;15.60;13.37;;;11.60;99.90;;;;;;5050965;28;20425;-73
2023/11/21 04:39:28;;;;;;;14.67;12.27;;;11.60;99.90;;;;;;5050059;28;20202;-73
2023/11/21 04:41:54;;;;;;;15.70;13.23;;;11.60;99.90;;;;;;5051990;28;20484;-72
2023/11/21 04:44:20;;;;;;;14.10;12.27;;;11.60;99.90;;;;;;5050248;28;20184;-72
2023/11/21 04:46:45;;;;;;;16.17;11.87;;;11.60;99.90;;;;;;5050955;28;20185;-73
2023/11/21 04:49:11;;;;;;;13.73;12.33;;;11.60;99.90;;;;;;5034154;28;20170;-72
2023/11/21 04:51:37;;;;;;;15.80;12.37;;;11.60;99.90;;;;;;5050557;28;20195;-72
2023/11/21 04:54:03;;;;;;;14.43;12.30;;;11.60;99.90;;;;;;5051005;28;20219;-73
2023/11/21 04:56:28;;;;;;;14.13;12.63;;;11.60;99.90;;;;;;5051439;28;20463;-72
2023/11/21 04:58:54;;;;;;;15.83;12.73;;;11.60;99.90;;;;;;5050717;28;20183;-72
2023/11/21 05:01:21;;;;;;;17.50;12.90;;;11.60;99.90;;;;;;5050182;28;20611;-72
2023/11/21 05:03:47;;;;;;;17.50;11.60;;;11.60;99.90;;;;;;5050754;28;20819;-73
2023/11/21 05:06:14;;;;;;;17.70;11.97;;;11.60;99.90;;;;;;5050784;28;20910;-71
2023/11/21 05:08:40;;;;;;;14.60;11.87;;;11.60;99.90;;;;;;5051153;28;20439;-72
2023/11/21 05:11:07;;;;;;;14.87;12.50;;;11.60;99.90;;;;;;5050782;28;20940;-73
2023/11/21 05:13:34;;;;;;;12.97;11.50;;;11.60;99.90;;;;;;5049873;28;20420;-71
2023/11/21 05:16:00;;;;;;;17.23;11.80;;;11.60;99.90;;;;;;5051819;28;20800;-72
2023/11/21 05:18:29;;;;;;;13.17;11.63;;;11.60;99.90;;;;;;5050027;28;20459;-72
2023/11/21 05:20:56;;;;;;;13.17;11.80;;;11.60;99.90;;;;;;5050657;28;20757;-73
2023/11/21 05:23:21;;;;;;;12.77;11.47;;;11.50;99.90;;;;;;5051056;28;20419;-72
2023/11/21 05:25:47;;;;;;;17.20;11.80;;;11.60;99.90;;;;;;5050701;28;20431;-72
2023/11/21 05:28:13;;;;;;;16.20;13.70;;;11.60;99.90;;;;;;5050394;28;20515;-72
2023/11/21 05:30:39;;;;;;;13.83;11.50;;;11.50;99.90;;;;;;5050734;28;20180;-71
2023/11/21 05:33:05;;;;;;;13.57;12.20;;;11.50;99.90;;;;;;5050664;28;20182;-72
2023/11/21 05:35:31;;;;;;;12.40;10.60;;;11.50;99.90;;;;;;5053616;28;20182;-72
2023/11/21 05:37:57;;;;;;;11.93;10.63;;;11.40;99.90;;;;;;5055434;28;20414;-72
2023/11/21 05:40:23;;;;;;;16.30;12.00;;;11.40;99.90;;;;;;5035205;28;20188;-72
2023/11/21 05:42:48;;;;;;;13.87;11.40;;;11.40;99.90;;;;;;5054541;28;20230;-72
2023/11/21 05:45:15;;;;;;;13.60;10.70;;;11.40;99.90;;;;;;5043471;28;20192;-73
2023/11/21 05:47:43;;;;;;;13.73;11.47;;;11.30;99.90;;;;;;5053547;28;20201;-73
2023/11/21 05:50:11;;;;;;;14.80;11.67;;;11.30;99.90;;;;;;5054232;28;20429;-73
2023/11/21 05:52:39;;;;;;;13.33;11.47;;;11.30;99.90;;;;;;5053855;28;20515;-73
2023/11/21 05:55:08;;;;;;;13.50;10.63;;;11.30;99.90;;;;;;5054124;28;20426;-73
2023/11/21 05:57:38;;;;;;;13.80;11.57;;;11.30;99.90;;;;;;5053470;28;20432;-72
2023/11/21 06:00:19;;;;;;;16.83;12.20;;;11.30;99.90;;;;;;5054578;28;20437;-72
2023/11/21 06:02:46;;;;;;;14.40;10.87;;;11.50;99.90;;;;;;5054376;28;20443;-73
2023/11/21 06:05:12;;;;;;;14.23;11.47;;;11.30;99.90;;;;;;5054064;28;20904;-72
2023/11/21 06:07:38;;;;;;;14.30;12.30;;;11.20;99.90;;;;;;5053215;28;20543;-72
2023/11/21 06:10:11;;;;;;;15.70;11.67;;;11.30;99.90;;;;;;5054904;28;20176;-73
2023/11/21 06:12:38;;;;;;;15.60;11.73;;;11.30;99.90;;;;;;5053012;28;20945;-73
2023/11/21 06:15:05;;;;;;;11.47;10.03;;;11.30;99.90;;;;;;5043930;28;20458;-73
2023/11/21 06:17:37;;;;;;;14.67;11.50;;;11.30;99.90;;;;;;5094436;28;20492;-73
2023/11/21 06:20:09;;;;;;;12.70;10.60;;;11.30;99.90;;;;;;5093017;28;20930;-73
2023/11/21 06:22:45;;;;;;;12.90;10.83;;;11.30;99.90;;;;;;5092573;28;20422;-73
2023/11/21 06:25:13;;;;;;;14.70;12.03;;;11.40;99.90;;;;;;5094894;28;20393;-73
2023/11/21 06:27:40;;;;;;;19.50;12.40;;;11.30;99.90;;;;;;5066918;28;20502;-73
2023/11/21 06:30:08;;;;;;;15.37;12.70;;;11.30;99.90;;;;;;5074471;28;20772;-72
2023/11/21 06:32:35;;;;;;;15.00;12.50;;;11.30;99.90;;;;;;5070521;28;20415;-73
2023/11/21 06:35:04;;;;;;;19.80;11.87;;;11.30;99.90;;;;;;5090822;28;20431;-73
2023/11/21 06:37:31;;;;;;;14.17;11.43;;;11.30;99.90;;;;;;5092280;28;20892;-72
2023/11/21 06:39:58;;;;;;;15.47;13.20;;;11.30;99.90;;;;;;5081409;28;20423;-71
2023/11/21 06:42:28;;;;;;;15.73;12.60;;;11.30;99.90;;;;;;5053618;28;20820;-72
2023/11/21 06:44:57;;;;;;;18.53;14.00;;;11.40;99.90;;;;;;5072585;28;20445;-72
2023/11/21 06:47:26;;;;;;;21.13;15.10;;;11.40;99.90;;;;;;5090227;28;20472;-71
2023/11/21 06:49:53;;;;;;;19.13;12.93;;;11.40;99.90;;;;;;5070275;28;20519;-73
2023/11/21 06:52:19;;;;;;;15.53;12.40;;;11.40;99.90;;;;;;5073278;28;20434;-73
2023/11/21 06:54:45;;;;;;;15.73;12.80;;;11.40;99.90;;;;;;5087114;28;20447;-72
2023/11/21 06:57:11;;;;;;;15.90;13.23;;;11.40;99.90;;;;;;5090797;28;20429;-72
2023/11/21 06:59:37;;;;;;;19.10;14.20;;;11.50;99.90;;;;;;5087865;28;20427;-73
2023/11/21 07:02:06;;;;;;;18.50;14.53;;;11.50;99.90;;;;;;5074642;28;20429;-73
2023/11/21 07:04:38;;;;;;;17.63;14.00;;;11.50;99.90;;;;;;5092608;28;20487;-70
2023/11/21 07:07:04;;;;;;;20.17;16.67;;;11.50;99.90;;;;;;5080007;28;20417;-73
2023/11/21 07:09:30;;;;;;;18.27;15.87;;;11.60;99.90;;;;;;5072608;28;20916;-73
2023/11/21 07:11:56;;;;;;;15.90;13.97;;;11.60;99.90;;;;;;5044797;28;20423;-68
2023/11/21 07:14:22;;;;;;;18.63;15.77;;;11.60;99.90;;;;;;5079498;28;20518;-68
2023/11/21 07:16:48;;;;;;;19.87;15.10;;;11.60;99.90;;;;;;5053701;28;20472;-69
2023/11/21 07:19:14;;;;;;;19.87;15.57;;;11.70;99.90;;;;;;5052261;28;20557;-69
2023/11/21 07:21:40;;;;;;;21.80;17.03;;;11.90;99.90;;;;;;5051833;28;20179;-69
2023/11/21 07:24:07;;;;;;;24.97;17.13;;;11.70;99.90;;;;;;5053459;28;20536;-69
2023/11/21 07:26:33;;;;;;;21.07;14.97;;;11.70;99.90;;;;;;5051975;28;20431;-69
2023/11/21 07:29:00;;;;;;;22.33;15.90;;;11.70;99.90;;;;;;5052417;28;20561;-69
2023/11/21 07:31:26;;;;;;;21.10;16.20;;;11.70;99.90;;;;;;5034893;28;20506;-68
2023/11/21 07:33:52;;;;;;;21.90;16.37;;;11.80;99.90;;;;;;5050288;28;20437;-69
2023/11/21 07:36:20;;;;;;;19.80;13.73;;;11.80;99.90;;;;;;5053049;28;20427;-68
2023/11/21 07:38:47;;;;;;;16.90;14.13;;;11.80;99.90;;;;;;5051307;28;20437;-68
2023/11/21 07:41:15;;;;;;;19.30;13.67;;;11.80;99.90;;;;;;5052059;28;20920;-68
2023/11/21 07:43:42;;;;;;;20.60;13.67;;;11.80;99.90;;;;;;5052492;28;20440;-65
2023/11/21 07:46:07;;;;;;;15.70;13.00;;;11.90;99.90;;;;;;5051761;28;20502;-65
2023/11/21 07:48:34;;;;;;;24.60;15.87;;;11.90;99.90;;;;;;5051311;28;20453;-66
2023/11/21 07:51:03;;;;;;;24.10;17.23;;;11.90;99.90;;;;;;5052792;28;20166;-66
2023/11/21 07:53:29;;;;;;;22.67;15.30;;;11.90;99.90;;;;;;5051285;28;20511;-68
2023/11/21 07:56:02;;;;;;;20.10;12.50;;;11.90;99.90;;;;;;5051121;28;20771;-68
2023/11/21 07:58:28;;;;;;;20.70;15.50;;;11.90;99.90;;;;;;5051562;28;20501;-68
2023/11/21 08:00:54;;;;;;;18.60;14.10;;;11.90;99.90;;;;;;5050348;28;20954;-70
2023/11/21 08:03:20;;;;;;;18.10;13.77;;;11.90;99.90;;;;;;5052982;28;20186;-70
2023/11/21 08:05:47;;;;;;;19.73;14.83;;;11.80;99.90;;;;;;5050699;28;20905;-64
2023/11/21 08:08:13;;;;;;;22.13;15.70;;;11.90;99.90;;;;;;5051373;28;20463;-64
2023/11/21 08:10:38;;;;;;;19.57;15.20;;;12.30;99.90;;;;;;5033929;28;20408;-64
2023/11/21 08:13:06;;;;;;;18.03;13.20;;;12.70;99.90;;;;;;5050973;28;21009;-64
2023/11/21 08:15:32;;;;;;;20.03;14.50;;;13.20;99.90;;;;;;5050656;28;20213;-64
2023/11/21 08:18:01;;;;;;;19.43;14.50;;;13.60;99.90;;;;;;5051407;28;20466;-64
2023/11/21 08:20:28;;;;;;;15.60;13.93;;;13.90;99.90;;;;;;5046739;28;20426;-64
2023/11/21 08:22:56;;;;;;;17.50;13.80;;;14.20;99.90;;;;;;5051401;28;20501;-64
2023/11/21 08:25:22;;;;;;;21.17;14.13;;;14.50;99.90;;;;;;5050180;28;20454;-64
2023/11/21 08:27:48;;;;;;;18.70;14.10;;;14.70;99.90;;;;;;5050858;28;20493;-64
2023/11/21 08:30:16;;;;;;;13.87;12.47;;;15.00;99.90;;;;;;5052434;28;20164;-64
2023/11/21 08:32:42;;;;;;;15.57;13.97;;;15.10;99.90;;;;;;5050767;28;20425;-64
2023/11/21 08:35:08;;;;;;;18.00;14.30;;;15.30;99.90;;;;;;5051300;28;20880;-65
2023/11/21 08:37:37;;;;;;;16.93;13.40;;;15.40;99.90;;;;;;5033871;28;20442;-64
2023/11/21 08:40:05;;;;;;;19.30;13.30;;;15.50;99.90;;;;;;5051263;28;20456;-64
2023/11/21 08:42:31;;;;;;;17.00;13.40;;;15.60;99.90;;;;;;5050594;28;20435;-65
2023/11/21 08:45:00;;;;;;;16.33;13.43;;;15.70;99.90;;;;;;5052032;28;20757;-64
2023/11/21 08:47:26;;;;;;;18.97;13.70;;;15.80;99.90;;;;;;5033072;28;20685;-65
2023/11/21 08:49:53;;;;;;;16.37;13.30;;;15.90;99.90;;;;;;5050597;28;20771;-65
2023/11/21 08:52:22;;;;;;;19.47;13.83;;;16.00;99.90;;;;;;5052095;28;20411;-64
2023/11/21 08:54:55;;;;;;;19.63;14.07;;;16.00;99.90;;;;;;5050703;28;20802;-64
2023/11/21 08:57:22;;;;;;;17.63;13.67;;;16.10;99.90;;;;;;5051112;28;20458;-64
2023/11/21 08:59:47;;;;;;;315.00;234.93;;;16.10;99.90;;;;;;5049936;28;20420;-65
2023/11/21 09:02:13;;;;;;;67.60;43.43;;;16.10;99.90;;;;;;5051995;28;20411;-67
2023/11/21 09:04:39;;;;;;;47.17;32.90;;;16.10;99.90;;;;;;5050059;28;20181;-67
2023/11/21 09:07:05;;;;;;;22.20;15.47;;;16.00;99.90;;;;;;5051104;28;20177;-67
2023/11/21 09:09:30;;;;;;;17.73;13.50;;;15.80;99.90;;;;;;5054169;28;20674;-68
2023/11/21 09:11:57;;;;;;;18.07;12.03;;;15.50;99.90;;;;;;5054977;28;20451;-70
2023/11/21 09:14:22;;;;;;;20.60;13.40;;;15.20;99.90;;;;;;5054848;28;20234;-66
2023/11/21 09:16:50;;;;;;;15.70;11.60;;;15.00;99.90;;;;;;5054806;28;20493;-67
2023/11/21 09:19:16;;;;;;;16.43;12.70;;;14.70;99.90;;;;;;5054860;28;20241;-67
2023/11/21 09:21:41;;;;;;;20.10;14.00;;;14.50;99.90;;;;;;5053711;28;20853;-67
2023/11/21 09:24:08;;;;;;;20.27;13.40;;;14.30;99.90;;;;;;5054930;28;20188;-67
2023/11/21 09:26:34;;;;;;;18.53;13.40;;;14.10;99.90;;;;;;5054997;28;20539;-67
2023/11/21 09:29:02;;;;;;;20.30;13.40;;;13.90;99.90;;;;;;5054469;28;20503;-67
2023/11/21 09:31:27;;;;;;;19.53;13.23;;;13.80;99.90;;;;;;5038171;28;20206;-66
2023/11/21 09:33:53;;;;;;;20.70;14.10;;;13.70;99.90;;;;;;5054013;28;20456;-67
2023/11/21 09:36:19;;;;;;;22.80;14.60;;;13.60;99.90;;;;;;5054856;28;20260;-66
2023/11/21 09:38:44;;;;;;;22.30;14.17;;;13.40;99.90;;;;;;5053829;28;20193;-66
2023/11/21 09:41:29;;;;;;;18.57;13.70;;;13.30;99.90;;;;;;5055723;28;20176;-67
2023/11/21 09:43:59;;;;;;;22.90;15.63;;;13.30;99.90;;;;;;5054042;28;20583;-67
2023/11/21 09:46:27;;;;;;;20.23;14.13;;;13.20;99.90;;;;;;5036606;28;20435;-67
2023/11/21 09:48:54;;;;;;;20.07;15.30;;;13.20;99.90;;;;;;5053745;28;21009;-67
2023/11/21 09:51:22;;;;;;;22.93;16.00;;;13.10;99.90;;;;;;5055225;28;20427;-67
2023/11/21 09:53:52;;;;;;;19.60;14.87;;;13.10;99.90;;;;;;5053539;28;20423;-67
2023/11/21 09:56:23;;;;;;;24.50;16.40;;;13.00;99.90;;;;;;5054120;28;20480;-67
2023/11/21 09:58:55;;;;;;;24.20;16.00;;;13.00;99.90;;;;;;5053429;28;20420;-68
2023/11/21 10:01:23;;;;;;;22.97;16.17;;;13.10;99.90;;;;;;5054309;28;20514;-70
2023/11/21 10:03:49;;;;;;;22.23;14.40;;;13.40;99.90;;;;;;5054235;28;20444;-70
2023/11/21 10:06:16;;;;;;;22.67;13.90;;;13.70;99.90;;;;;;5052897;28;20426;-70
2023/11/21 10:08:42;;;;;;;23.80;14.70;;;14.10;99.90;;;;;;5052225;28;20452;-70
2023/11/21 10:11:11;;;;;;;23.80;14.90;;;14.60;99.90;;;;;;5054539;28;20561;-70
2023/11/21 10:13:38;;;;;;;19.20;13.73;;;14.80;99.90;;;;;;5032408;28;20427;-70
2023/11/21 10:16:07;;;;;;;25.37;14.63;;;15.10;99.90;;;;;;5050455;28;20549;-70
2023/11/21 10:18:34;;;;;;;19.47;13.50;;;15.60;99.90;;;;;;5054728;28;20507;-68
2023/11/21 10:21:00;;;;;;;22.20;15.90;;;15.80;99.90;;;;;;5051888;28;20772;-68
2023/11/21 10:23:28;;;;;;;20.73;14.70;;;16.00;99.90;;;;;;5051536;28;20480;-68
2023/11/21 10:25:54;;;;;;;19.07;14.57;;;16.20;99.90;;;;;;5034095;28;20805;-68
2023/11/21 10:28:20;;;;;;;18.67;12.97;;;16.40;99.90;;;;;;5034640;28;20844;-68
2023/11/21 10:30:47;;;;;;;23.77;16.17;;;16.60;99.90;;;;;;5045275;28;20421;-68
2023/11/21 10:33:12;;;;;;;24.70;15.87;;;16.90;99.90;;;;;;5047318;28;20420;-68
2023/11/21 10:35:41;;;;;;;21.97;16.80;;;17.00;99.90;;;;;;5033693;28;20412;-68
2023/11/21 10:38:10;;;;;;;20.97;14.07;;;17.00;99.90;;;;;;5054413;28;20462;-70
2023/11/21 10:40:42;;;;;;;23.20;15.97;;;17.00;99.90;;;;;;5040267;28;20432;-69
2023/11/21 10:43:15;;;;;;;19.93;15.03;;;17.00;99.90;;;;;;5033791;28;20441;-70
2023/11/21 10:45:42;;;;;;;22.87;18.30;;;17.00;99.90;;;;;;5034173;28;20421;-70
2023/11/21 10:48:16;;;;;;;22.10;16.17;;;17.00;99.90;;;;;;5049108;28;20468;-70
2023/11/21 10:50:43;;;;;;;21.07;16.00;;;17.00;99.90;;;;;;5053842;28;20454;-70
2023/11/21 10:53:11;;;;;;;24.47;19.40;;;17.00;99.90;;;;;;5054110;28;20404;-70
2023/11/21 10:55:37;;;;;;;22.27;16.67;;;17.00;99.90;;;;;;5053467;28;20499;-70
2023/11/21 10:58:05;;;;;;;23.33;18.37;;;17.20;99.90;;;;;;5041908;28;20520;-70
2023/11/21 11:00:32;;;;;;;24.73;17.87;;;17.20;99.90;;;;;;5034069;28;20413;-70
2023/11/21 11:02:59;;;;;;;22.70;16.33;;;17.30;99.90;;;;;;5033318;28;20891;-70
2023/11/21 11:05:28;;;;;;;23.90;16.40;;;17.30;99.90;;;;;;5033720;28;20413;-70
2023/11/21 11:08:07;;;;;;;23.33;16.53;;;17.40;99.90;;;;;;5033363;28;20449;-70
2023/11/21 11:10:34;;;;;;;25.97;14.97;;;17.40;99.90;;;;;;5043010;28;20832;-70
2023/11/21 11:12:59;;;;;;;20.33;15.30;;;17.50;99.90;;;;;;5032571;28;20769;-70
2023/11/21 11:15:27;;;;;;;120.27;76.83;;;17.50;99.90;;;;;;5033618;28;20449;-67
2023/11/21 11:17:57;;;;;;;93.20;67.80;;;17.60;99.90;;;;;;5044474;28;20504;-69
2023/11/21 11:20:25;;;;;;;30.07;21.90;;;17.70;99.90;;;;;;5053041;28;20396;-70
2023/11/21 11:23:09;;;;;;;23.47;15.83;;;17.80;99.90;;;;;;5038105;28;20486;-69
2023/11/21 11:25:54;;;;;;;22.33;16.30;;;17.80;99.90;;;;;;5053002;28;20479;-70
2023/11/21 11:28:29;;;;;;;20.93;14.93;;;17.90;99.90;;;;;;5033052;28;20459;-70
2023/11/21 11:31:04;;;;;;;18.83;14.40;;;17.90;99.90;;;;;;5047488;28;20420;-70
2023/11/21 11:33:37;;;;;;;18.63;13.57;;;17.90;99.90;;;;;;5052368;28;20424;-70
2023/11/21 11:36:37;;;;;;;15.87;12.50;;;18.10;99.90;;;;;;5034990;28;20526;-69
2023/11/21 11:39:23;;;;;;;19.63;13.10;;;18.20;99.90;;;;;;5044184;28;20440;-69
2023/11/21 11:41:50;;;;;;;15.73;12.80;;;18.30;99.90;;;;;;5051396;28;20423;-69
2023/11/21 11:44:51;;;;;;;45.40;35.30;;;18.40;99.90;;;;;;5033948;28;21051;-70
2023/11/21 11:47:24;;;;;;;18.83;13.20;;;18.50;99.90;;;;;;5031188;28;20459;-69
2023/11/21 11:50:17;;;;;;;18.13;14.80;;;18.60;99.90;;;;;;5032417;28;20402;-70
2023/11/21 11:52:45;;;;;;;13.73;11.70;;;18.70;99.90;;;;;;5049489;28;20428;-70
2023/11/21 11:55:20;;;;;;;24.40;12.90;;;18.70;99.90;;;;;;5052036;28;20424;-70
2023/11/21 11:57:50;;;;;;;17.67;12.87;;;18.70;99.90;;;;;;5051870;28;20916;-70
2023/11/21 12:00:39;;;;;;;20.10;14.00;;;18.70;99.90;;;;;;5052807;28;20760;-70
2023/11/21 12:03:08;;;;;;;19.83;12.03;;;18.70;99.90;;;;;;5052984;28;20384;-70
2023/11/21 12:05:36;;;;;;;21.67;13.10;;;18.70;99.90;;;;;;5051638;28;20818;-70
2023/11/21 12:08:05;;;;;;;16.57;12.50;;;18.70;99.90;;;;;;5050928;28;20463;-68
2023/11/21 12:10:33;;;;;;;20.07;13.20;;;18.70;99.90;;;;;;5052721;28;20546;-68
2023/11/21 12:13:02;;;;;;;14.27;12.60;;;18.70;99.90;;;;;;5051144;28;20432;-69
2023/11/21 12:15:31;;;;;;;18.77;13.67;;;18.70;99.90;;;;;;5051061;28;20826;-68
2023/11/21 12:18:00;;;;;;;17.03;13.10;;;18.60;99.90;;;;;;5034012;28;20423;-68
2023/11/21 12:20:27;;;;;;;15.70;12.07;;;18.60;99.90;;;;;;5051420;28;20481;-68
2023/11/21 12:23:00;;;;;;;14.60;12.40;;;18.70;99.90;;;;;;5050968;28;20827;-68
2023/11/21 12:25:29;;;;;;;16.37;12.33;;;18.60;99.90;;;;;;5051778;28;20435;-68
2023/11/21 12:27:57;;;;;;;16.33;12.00;;;18.50;99.90;;;;;;5051673;28;20448;-68
2023/11/21 12:30:27;;;;;;;14.23;12.57;;;18.40;99.90;;;;;;5051672;28;20515;-68